Time;durP1;ratioP1;P1;durP2;ratioP2;P2;SDS_P1;SDS_P2;PMS_P1;PMS_P2;Temp;Humidity;BMP_temperature;BMP_pressure;BME280_temperature;BME280_humidity;BME280_pressure;Samples;Min_cycle;Max_cycle;Signal;HPM_P1;HPM_P2
2023/01/31 00:02:20;;;;;;;30.58;14.40;;;;;;;0.95;66.65;99001.19;4986182;28;20039;-67
2023/01/31 00:04:46;;;;;;;29.92;15.32;;;;;;;1.02;66.52;99000.06;4974269;28;20031;-67
2023/01/31 00:07:11;;;;;;;27.08;13.68;;;;;;;1.09;66.15;99006.91;4974122;28;20045;-67
2023/01/31 00:09:37;;;;;;;27.70;13.68;;;;;;;1.09;65.48;98995.09;4985093;28;20481;-67
2023/01/31 00:12:02;;;;;;;28.80;14.30;;;;;;;1.04;65.34;98998.69;4991130;28;20022;-67
2023/01/31 00:14:28;;;;;;;35.45;16.75;;;;;;;1.10;66.08;99007.75;4976312;28;20026;-67
2023/01/31 00:16:53;;;;;;;34.17;17.73;;;;;;;1.13;66.74;98993.41;4973833;28;20030;-67
2023/01/31 00:19:19;;;;;;;31.23;15.93;;;;;;;1.09;67.32;99001.41;4983429;28;20073;-68
2023/01/31 00:21:45;;;;;;;34.45;16.13;;;;;;;0.99;67.13;99001.44;4991975;28;20489;-67
2023/01/31 00:24:14;;;;;;;25.40;13.75;;;;;;;1.25;66.21;99002.13;4991519;28;20030;-67
2023/01/31 00:26:40;;;;;;;26.38;13.23;;;;;;;0.96;66.69;99002.81;4972522;28;20031;-67
2023/01/31 00:29:05;;;;;;;24.75;12.75;;;;;;;1.03;66.82;99004.47;4981005;28;20026;-67
2023/01/31 00:31:33;;;;;;;26.95;13.73;;;;;;;1.12;65.72;98997.25;4993157;28;20034;-67
2023/01/31 00:33:59;;;;;;;32.10;13.95;;;;;;;1.26;64.10;98995.53;4978687;28;20129;-67
2023/01/31 00:36:28;;;;;;;24.10;12.32;;;;;;;1.26;64.26;98992.75;4972563;28;20445;-68
2023/01/31 00:38:55;;;;;;;23.90;12.73;;;;;;;1.35;63.17;98989.41;4979009;28;20057;-68
2023/01/31 00:41:22;;;;;;;23.85;12.13;;;;;;;1.49;62.83;98986.81;4993020;28;20470;-67
2023/01/31 00:43:49;;;;;;;23.48;11.73;;;;;;;1.50;62.61;98989.31;4980053;28;20030;-67
2023/01/31 00:46:15;;;;;;;19.25;9.77;;;;;;;1.51;62.40;98988.19;4973279;28;20057;-67
2023/01/31 00:48:41;;;;;;;19.58;10.82;;;;;;;1.49;61.59;98995.09;4973350;28;20114;-67
2023/01/31 00:51:07;;;;;;;25.02;12.90;;;;;;;1.48;62.28;98994.28;4973423;28;20062;-67
2023/01/31 00:53:32;;;;;;;29.52;13.52;;;;;;;1.50;62.33;98994.81;4980808;28;20030;-67
2023/01/31 00:56:07;;;;;;;24.00;13.02;;;;;;;1.56;62.32;99003.03;4992772;28;20018;-68
2023/01/31 00:58:33;;;;;;;27.13;13.00;;;;;;;1.60;63.05;99006.88;4990358;28;20434;-67
2023/01/31 01:01:15;;;;;;;24.95;12.90;;;;;;;1.57;63.63;99001.94;4983673;28;20030;-67
2023/01/31 01:03:43;;;;;;;24.08;13.45;;;;;;;1.47;64.51;98992.63;4990691;28;20136;-67
2023/01/31 01:06:09;;;;;;;30.23;13.55;;;;;;;1.49;65.32;99000.59;4992382;28;20109;-67
2023/01/31 01:08:36;;;;;;;25.98;13.10;;;;;;;1.60;65.73;98999.44;4990096;28;20509;-67
2023/01/31 01:11:29;;;;;;;27.05;11.18;;;;;;;1.40;67.80;98995.72;4973188;28;20117;-68
2023/01/31 01:13:56;;;;;;;17.85;8.90;;;;;;;1.35;68.69;98981.16;4981094;28;20054;-68
2023/01/31 01:16:27;;;;;;;14.68;7.97;;;;;;;1.48;68.86;98985.19;4991173;28;20077;-67
2023/01/31 01:18:53;;;;;;;15.45;8.95;;;;;;;1.52;68.74;98986.28;4988006;28;20042;-67
2023/01/31 01:21:28;;;;;;;20.50;10.18;;;;;;;1.58;68.11;99000.84;4973091;28;20023;-67
2023/01/31 01:23:59;;;;;;;18.70;9.13;;;;;;;1.57;68.49;99000.00;4982076;28;20462;-67
2023/01/31 01:26:27;;;;;;;18.77;9.27;;;;;;;1.58;68.63;99001.66;4990953;28;20112;-67
2023/01/31 01:28:54;;;;;;;20.35;9.70;;;;;;;1.62;68.01;98996.41;4991907;28;20509;-67
2023/01/31 01:31:20;;;;;;;18.85;8.77;;;;;;;1.66;68.06;98992.78;4990488;28;20073;-67
2023/01/31 01:33:48;;;;;;;15.68;9.00;;;;;;;1.76;67.70;98986.34;4982531;28;20022;-68
2023/01/31 01:36:16;;;;;;;14.70;8.07;;;;;;;1.81;67.46;98982.72;4972634;28;20034;-68
2023/01/31 01:38:43;;;;;;;16.10;8.85;;;;;;;1.79;67.72;98980.25;4977516;28;20370;-67
2023/01/31 01:41:10;;;;;;;22.55;9.55;;;;;;;1.74;67.73;98968.44;4990911;28;20404;-69
2023/01/31 01:43:46;;;;;;;18.50;9.10;;;;;;;1.76;67.77;98975.31;4986357;28;20030;-67
2023/01/31 01:46:31;;;;;;;19.33;8.85;;;;;;;1.78;67.60;98981.38;4992037;28;20394;-68
2023/01/31 01:49:11;;;;;;;18.30;8.30;;;;;;;1.80;68.01;98976.38;4986978;28;20042;-68
2023/01/31 01:51:38;;;;;;;18.48;9.40;;;;;;;1.80;67.34;98964.53;4971659;28;20042;-67
2023/01/31 01:54:10;;;;;;;19.80;9.63;;;;;;;1.88;67.52;98960.34;4973257;28;20039;-67
2023/01/31 01:56:40;;;;;;;12.48;7.22;;;;;;;1.85;66.14;98950.69;4972576;28;20505;-67
2023/01/31 01:59:19;;;;;;;15.25;7.13;;;;;;;2.03;66.25;98954.66;4975747;28;20511;-67
2023/01/31 02:01:48;;;;;;;15.38;7.63;;;;;;;2.13;65.42;98956.50;4989132;28;20042;-67
2023/01/31 02:04:21;;;;;;;10.40;6.55;;;;;;;2.21;64.86;98958.63;4992002;28;20023;-67
2023/01/31 02:06:47;;;;;;;11.88;6.43;;;;;;;2.16;65.76;98946.81;4972813;28;20536;-67
2023/01/31 02:09:21;;;;;;;8.40;4.55;;;;;;;2.27;65.08;98951.09;4977472;28;20041;-67
2023/01/31 02:11:47;;;;;;;11.48;5.90;;;;;;;2.43;65.02;98942.69;4991745;28;20519;-67
2023/01/31 02:14:13;;;;;;;9.95;4.80;;;;;;;2.56;64.11;98933.69;4991978;28;20038;-67
2023/01/31 02:16:38;;;;;;;8.70;4.53;;;;;;;2.52;64.73;98929.84;4992047;28;20026;-67
2023/01/31 02:19:11;;;;;;;8.07;4.68;;;;;;;2.49;64.28;98935.97;4988081;28;20035;-68
2023/01/31 02:21:45;;;;;;;7.63;4.18;;;;;;;2.55;64.37;98936.72;4972459;28;20029;-67
2023/01/31 02:24:28;;;;;;;10.13;5.38;;;;;;;2.53;65.03;98934.25;4972493;28;20034;-67
2023/01/31 02:27:03;;;;;;;10.93;5.85;;;;;;;2.47;64.90;98927.97;4972331;28;20031;-67
2023/01/31 02:29:45;;;;;;;11.07;5.93;;;;;;;2.46;64.54;98920.00;4977465;28;20034;-68
2023/01/31 02:32:16;;;;;;;13.40;6.40;;;;;;;2.57;64.54;98916.00;4988553;28;20030;-67
2023/01/31 02:35:08;;;;;;;8.88;5.13;;;;;;;2.53;64.14;98920.44;4992118;28;20405;-67
2023/01/31 02:37:49;;;;;;;11.57;5.57;;;;;;;2.43;64.69;98926.13;4976725;28;20073;-67
2023/01/31 02:40:36;;;;;;;9.98;5.47;;;;;;;2.33;65.18;98919.59;4988097;28;20045;-67
2023/01/31 02:43:26;;;;;;;10.27;5.13;;;;;;;2.48;64.32;98909.47;4992217;28;20132;-67
2023/01/31 02:45:57;;;;;;;12.88;5.72;;;;;;;2.42;64.45;98903.19;4994800;28;20054;-68
2023/01/31 02:48:25;;;;;;;9.32;4.82;;;;;;;2.38;65.04;98905.72;4995006;28;20481;-67
2023/01/31 02:51:04;;;;;;;8.52;5.10;;;;;;;2.42;64.90;98908.72;4995311;28;20429;-67
2023/01/31 02:53:36;;;;;;;9.20;5.28;;;;;;;2.47;64.58;98913.34;4981213;28;20038;-67
2023/01/31 02:56:28;;;;;;;7.85;5.13;;;;;;;2.43;64.26;98918.63;4991342;28;20392;-67
2023/01/31 02:59:05;;;;;;;9.60;5.22;;;;;;;2.57;64.71;98920.69;4993646;28;20469;-67
2023/01/31 03:01:37;;;;;;;8.48;4.90;;;;;;;2.38;64.47;98922.28;4993586;28;20037;-68
2023/01/31 03:04:06;;;;;;;9.40;4.82;;;;;;;2.47;63.64;98935.44;4976804;28;20031;-67
2023/01/31 03:06:34;;;;;;;6.47;4.35;;;;;;;2.60;62.50;98934.72;4975256;28;20029;-67
2023/01/31 03:09:20;;;;;;;9.82;5.13;;;;;;;2.61;62.57;98924.53;4982744;28;20034;-67
2023/01/31 03:11:58;;;;;;;8.38;4.60;;;;;;;2.54;63.04;98927.63;4993677;28;20034;-67
2023/01/31 03:14:44;;;;;;;9.32;5.30;;;;;;;2.33;64.80;98929.78;4978033;28;20109;-67
2023/01/31 03:17:33;;;;;;;11.00;6.38;;;;;;;2.28;64.94;98936.19;4993142;28;20037;-67
2023/01/31 03:20:03;;;;;;;10.48;6.38;;;;;;;2.27;65.10;98937.31;4993007;28;20487;-67
2023/01/31 03:22:34;;;;;;;14.38;7.57;;;;;;;2.15;66.04;98942.41;4992700;28;20034;-67
2023/01/31 03:25:01;;;;;;;16.05;7.63;;;;;;;2.20;63.06;98934.91;4984640;28;20085;-67
2023/01/31 03:27:27;;;;;;;15.85;7.45;;;;;;;2.42;60.03;98941.84;4974963;28;20038;-67
2023/01/31 03:30:01;;;;;;;12.07;6.18;;;;;;;2.51;59.57;98944.78;4974750;28;20034;-67
2023/01/31 03:32:34;;;;;;;10.00;6.15;;;;;;;2.48;57.66;98940.69;4973737;28;20061;-67
2023/01/31 03:35:01;;;;;;;10.38;5.78;;;;;;;2.51;57.87;98936.50;4974847;28;20026;-67
2023/01/31 03:37:40;;;;;;;14.68;7.28;;;;;;;2.36;60.93;98948.56;4974854;28;20106;-67
2023/01/31 03:40:18;;;;;;;17.05;7.93;;;;;;;2.28;61.78;98958.28;4989413;28;20113;-67
2023/01/31 03:42:56;;;;;;;20.58;9.90;;;;;;;2.11;63.19;98964.25;4991933;28;20036;-67
2023/01/31 03:45:50;;;;;;;12.65;7.22;;;;;;;1.97;63.00;98966.88;4989612;28;20050;-67
2023/01/31 03:48:18;;;;;;;13.25;7.05;;;;;;;1.92;63.14;98967.75;4974465;28;20034;-67
2023/01/31 03:50:51;;;;;;;16.02;7.53;;;;;;;1.92;62.75;98964.97;4973409;28;20078;-67
2023/01/31 03:53:29;;;;;;;14.85;7.10;;;;;;;2.01;62.69;98978.97;4981722;28;20064;-67
2023/01/31 03:56:17;;;;;;;13.75;7.30;;;;;;;1.99;63.52;98972.91;4992676;28;20023;-67
2023/01/31 03:58:49;;;;;;;13.90;7.25;;;;;;;1.95;63.48;98967.16;4992572;28;20112;-67
2023/01/31 04:01:17;;;;;;;15.43;7.72;;;;;;;1.87;62.95;98970.56;4993554;28;20497;-67
2023/01/31 04:03:49;;;;;;;23.63;9.30;;;;;;;1.73;63.64;98973.16;4981345;28;20026;-67
2023/01/31 04:06:15;;;;;;;19.05;8.77;;;;;;;1.95;57.48;98972.66;4974261;28;20027;-67
2023/01/31 04:08:42;;;;;;;18.52;9.52;;;;;;;2.09;56.70;98977.50;4974976;28;20027;-67
2023/01/31 04:11:10;;;;;;;15.45;8.45;;;;;;;2.08;56.62;98993.25;4973131;28;20122;-67
2023/01/31 04:13:36;;;;;;;20.27;10.18;;;;;;;2.06;56.37;98987.22;4983497;28;20030;-67
2023/01/31 04:16:02;;;;;;;16.00;9.57;;;;;;;2.12;56.31;98992.66;4992467;28;20389;-67
2023/01/31 04:18:28;;;;;;;18.77;8.20;;;;;;;2.05;57.01;98999.38;4992016;28;20485;-67
2023/01/31 04:20:53;;;;;;;16.77;8.85;;;;;;;2.00;57.23;98996.63;4977960;28;20030;-67
2023/01/31 04:23:19;;;;;;;16.75;8.55;;;;;;;2.11;55.91;99000.09;4982836;28;20038;-67
2023/01/31 04:25:45;;;;;;;20.95;9.95;;;;;;;2.12;55.44;99009.22;4973611;28;20088;-67
2023/01/31 04:28:10;;;;;;;22.13;10.15;;;;;;;2.17;54.68;98984.31;4972484;28;20027;-67
2023/01/31 04:30:36;;;;;;;19.90;9.57;;;;;;;2.26;54.74;99006.63;4984275;28;20508;-67
2023/01/31 04:33:02;;;;;;;19.98;9.20;;;;;;;2.21;55.04;99007.50;4985934;28;20041;-66
2023/01/31 04:35:28;;;;;;;16.70;8.95;;;;;;;2.21;55.16;99018.53;4972451;28;20037;-67
2023/01/31 04:37:54;;;;;;;20.15;8.77;;;;;;;2.28;54.49;99019.00;4973747;28;20029;-67
2023/01/31 04:40:19;;;;;;;18.90;9.25;;;;;;;2.21;55.09;99015.78;4973792;28;20037;-67
2023/01/31 04:42:45;;;;;;;38.10;9.63;;;;;;;2.23;54.56;99019.06;4976726;28;20124;-67
2023/01/31 04:45:11;;;;;;;18.20;8.90;;;;;;;2.20;55.58;99030.69;4990990;28;20042;-67
2023/01/31 04:47:37;;;;;;;18.73;8.77;;;;;;;2.15;55.84;99034.31;4992832;28;20073;-67
2023/01/31 04:50:05;;;;;;;18.35;9.48;;;;;;;2.02;56.75;99032.22;4990134;28;20121;-67
2023/01/31 04:52:31;;;;;;;18.60;10.13;;;;;;;1.91;57.32;99036.97;4992379;28;20030;-67
2023/01/31 04:54:56;;;;;;;17.98;9.40;;;;;;;1.83;58.08;99043.94;4992540;28;20027;-66
2023/01/31 04:57:22;;;;;;;18.70;10.27;;;;;;;1.80;58.05;99050.84;4992421;28;20033;-67
2023/01/31 04:59:49;;;;;;;25.90;9.93;;;;;;;1.69;58.64;99041.03;4986752;28;20034;-66
2023/01/31 05:02:14;;;;;;;20.20;11.05;;;;;;;1.64;58.87;99052.06;4980285;28;20173;-67
2023/01/31 05:04:40;;;;;;;20.38;10.02;;;;;;;1.64;58.68;99052.91;4989628;28;20768;-67
2023/01/31 05:07:05;;;;;;;22.17;11.43;;;;;;;1.56;59.57;99050.75;4991299;28;20393;-66
2023/01/31 05:09:31;;;;;;;23.30;11.82;;;;;;;1.46;60.35;99040.63;4992179;28;20091;-67
2023/01/31 05:11:56;;;;;;;24.95;13.82;;;;;;;1.47;60.28;99050.53;4992665;28;20022;-66
2023/01/31 05:14:22;;;;;;;20.13;9.82;;;;;;;1.49;60.76;99056.56;4975633;28;20035;-67
2023/01/31 05:16:47;;;;;;;25.35;11.55;;;;;;;1.57;60.50;99059.81;4973301;28;20027;-67
2023/01/31 05:19:16;;;;;;;24.88;11.20;;;;;;;1.57;60.33;99057.91;4973102;28;20031;-67
2023/01/31 05:21:54;;;;;;;23.45;12.88;;;;;;;1.64;60.32;99060.34;4991284;28;20113;-68
2023/01/31 05:24:20;;;;;;;25.50;11.85;;;;;;;1.60;61.22;99064.78;4976270;28;20107;-68
2023/01/31 05:26:46;;;;;;;26.45;11.60;;;;;;;1.52;62.24;99066.22;4991980;28;20085;-67
2023/01/31 05:29:12;;;;;;;31.77;14.13;;;;;;;1.48;62.83;99071.47;4990907;28;20093;-67
2023/01/31 05:31:38;;;;;;;23.15;12.45;;;;;;;1.44;63.16;99078.63;4991158;28;20030;-67
2023/01/31 05:34:03;;;;;;;23.73;12.77;;;;;;;1.51;62.86;99076.41;4991744;28;20500;-67
2023/01/31 05:36:29;;;;;;;27.80;13.20;;;;;;;1.63;62.45;99086.25;4975922;28;20050;-67
2023/01/31 05:38:54;;;;;;;26.83;13.57;;;;;;;1.65;62.25;99084.88;4976539;28;20038;-66
2023/01/31 05:41:20;;;;;;;28.63;13.30;;;;;;;1.63;62.86;99094.53;4989812;28;20042;-67
2023/01/31 05:43:45;;;;;;;22.35;10.77;;;;;;;1.53;63.73;99106.47;4980105;28;20038;-67
2023/01/31 05:46:11;;;;;;;17.63;10.35;;;;;;;1.49;64.26;99110.88;4984999;28;20501;-67
2023/01/31 05:48:36;;;;;;;20.10;9.82;;;;;;;1.44;64.71;99102.63;4991049;28;20487;-67
2023/01/31 05:51:01;;;;;;;20.15;10.15;;;;;;;1.41;65.57;99106.78;4991596;28;20053;-67
2023/01/31 05:53:27;;;;;;;24.25;12.02;;;;;;;1.33;65.80;99094.41;4981400;28;20497;-67
2023/01/31 05:55:53;;;;;;;47.17;18.10;;;;;;;1.29;65.83;99093.34;4982204;28;20481;-67
2023/01/31 05:58:18;;;;;;;45.05;16.85;;;;;;;1.24;66.09;99091.44;4990335;28;20030;-67
2023/01/31 06:00:44;;;;;;;26.70;13.77;;;;;;;1.27;66.49;99109.34;4990894;28;20030;-67
2023/01/31 06:03:10;;;;;;;29.55;13.02;;;;;;;1.19;67.04;99105.22;4990540;28;20033;-65
2023/01/31 06:05:35;;;;;;;59.50;23.50;;;;;;;1.17;67.53;99101.91;4991424;28;20030;-65
2023/01/31 06:08:01;;;;;;;45.63;18.67;;;;;;;1.11;67.71;99119.59;4991161;28;20042;-65
2023/01/31 06:10:26;;;;;;;30.77;14.55;;;;;;;1.07;67.67;99105.53;4980202;28;20030;-67
2023/01/31 06:12:52;;;;;;;25.30;11.60;;;;;;;1.15;67.68;99101.38;4975532;28;20034;-67
2023/01/31 06:15:17;;;;;;;23.83;11.77;;;;;;;1.04;67.90;99086.00;4987077;28;20512;-68
2023/01/31 06:17:43;;;;;;;19.45;10.82;;;;;;;1.18;67.90;99109.06;4971887;28;20529;-66
2023/01/31 06:20:09;;;;;;;26.92;12.38;;;;;;;1.25;67.18;99117.88;4973124;28;20026;-69
2023/01/31 06:22:34;;;;;;;19.02;9.98;;;;;;;1.41;65.67;99109.53;4973277;28;20031;-68
2023/01/31 06:25:00;;;;;;;18.55;10.05;;;;;;;1.65;64.74;99111.63;4972637;28;20042;-68
2023/01/31 06:27:25;;;;;;;16.67;9.73;;;;;;;1.89;63.45;99117.28;4987449;28;20454;-67
2023/01/31 06:29:51;;;;;;;15.85;8.82;;;;;;;1.99;62.92;99110.84;4976304;28;20505;-68
2023/01/31 06:32:16;;;;;;;14.15;7.68;;;;;;;2.06;62.90;99108.63;4984965;28;20118;-70
2023/01/31 06:34:42;;;;;;;15.52;9.15;;;;;;;2.16;63.14;99113.22;4971364;28;20386;-68
2023/01/31 06:37:09;;;;;;;17.95;8.10;;;;;;;2.32;62.32;99124.97;4982810;28;20089;-68
2023/01/31 06:39:35;;;;;;;19.58;11.20;;;;;;;2.34;62.68;99121.91;4992112;28;20105;-67
2023/01/31 06:42:00;;;;;;;20.63;9.13;;;;;;;2.31;62.80;99123.31;4987375;28;20038;-68
2023/01/31 06:44:26;;;;;;;20.15;9.70;;;;;;;2.35;62.96;99123.53;4990568;28;20026;-68
2023/01/31 06:46:51;;;;;;;19.77;9.55;;;;;;;2.36;63.29;99131.53;4990397;28;20548;-68
2023/01/31 06:49:16;;;;;;;26.67;11.73;;;;;;;2.36;63.52;99137.06;4990857;28;20456;-67
2023/01/31 06:51:42;;;;;;;26.50;13.77;;;;;;;2.40;63.81;99131.81;4991823;28;20034;-67
2023/01/31 06:54:07;;;;;;;31.85;14.65;;;;;;;2.42;63.71;99128.75;4992272;28;20030;-68
2023/01/31 06:56:33;;;;;;;25.98;13.35;;;;;;;2.45;63.80;99142.78;4992014;28;20030;-66
2023/01/31 06:58:58;;;;;;;29.52;12.13;;;;;;;2.45;63.26;99128.19;4989795;28;20026;-67
2023/01/31 07:01:25;;;;;;;33.30;13.70;;;;;;;2.47;63.56;99132.28;4990251;28;20066;-67
2023/01/31 07:03:51;;;;;;;24.15;11.73;;;;;;;2.51;63.54;99138.03;4982327;28;20441;-68
2023/01/31 07:06:19;;;;;;;26.05;11.45;;;;;;;2.52;62.61;99136.94;4984821;28;20042;-66
2023/01/31 07:08:45;;;;;;;21.73;10.73;;;;;;;2.60;62.26;99130.00;4989619;28;20121;-67
2023/01/31 07:11:10;;;;;;;38.65;15.70;;;;;;;2.65;62.49;99146.50;4986296;28;20050;-68
2023/01/31 07:13:36;;;;;;;35.90;15.95;;;;;;;2.62;63.14;99150.66;4972629;28;20034;-67
2023/01/31 07:16:02;;;;;;;31.13;13.27;;;;;;;2.62;63.08;99155.38;4975468;28;20330;-67
2023/01/31 07:18:27;;;;;;;28.92;14.32;;;;;;;2.72;62.09;99148.91;4994552;28;20041;-67
2023/01/31 07:20:53;;;;;;;31.33;12.85;;;;;;;2.71;62.12;99144.50;4990498;28;20425;-68
2023/01/31 07:23:19;;;;;;;26.73;12.52;;;;;;;2.72;62.23;99154.44;4987023;28;20041;-67
2023/01/31 07:25:44;;;;;;;29.98;12.40;;;;;;;2.76;61.56;99153.56;4970721;28;20049;-66
2023/01/31 07:28:10;;;;;;;25.02;9.93;;;;;;;2.82;61.92;99154.34;4993138;28;20034;-67
2023/01/31 07:30:36;;;;;;;23.00;12.63;;;;;;;2.80;62.58;99160.16;4980471;28;20037;-66
2023/01/31 07:33:01;;;;;;;22.13;10.10;;;;;;;2.82;61.38;99170.94;4988406;28;20026;-67
2023/01/31 07:35:27;;;;;;;25.65;11.35;;;;;;;2.86;61.75;99160.13;4975056;28;20568;-68
2023/01/31 07:37:53;;;;;;;27.95;12.48;;;;;;;2.90;61.20;99162.00;4970301;28;20034;-68
2023/01/31 07:40:19;;;;;;;28.58;12.57;;;;;;;2.93;61.35;99161.44;4976030;28;20049;-69
2023/01/31 07:42:44;;;;;;;30.60;14.52;;;;;;;2.93;61.76;99166.94;4991589;28;20034;-67
2023/01/31 07:45:11;;;;;;;34.75;13.45;;;;;;;2.98;60.89;99165.25;4981191;28;20105;-68
2023/01/31 07:47:37;;;;;;;33.58;14.27;;;;;;;2.90;61.58;99161.19;4988212;28;20479;-68
2023/01/31 07:50:05;;;;;;;44.40;16.85;;;;;;;2.99;61.34;99167.72;4993300;28;20170;-68
2023/01/31 07:52:31;;;;;;;33.67;14.98;;;;;;;2.98;61.73;99168.84;4981590;28;20485;-68
2023/01/31 07:54:57;;;;;;;36.42;13.57;;;;;;;2.96;61.66;99165.56;4973632;28;20030;-68
2023/01/31 07:57:22;;;;;;;33.13;14.13;;;;;;;2.91;62.09;99160.91;4980836;28;20085;-68
2023/01/31 07:59:48;;;;;;;31.23;14.18;;;;;;;3.00;61.65;99169.38;4972501;28;20123;-68
2023/01/31 08:04:59;;;;;;;36.92;14.52;;;;;;;3.09;61.20;99170.38;4993209;28;20037;-67
2023/01/31 08:07:27;;;;;;;50.05;17.02;;;;;;;3.18;60.20;99166.97;4991373;28;20576;-68
2023/01/31 08:09:52;;;;;;;39.50;15.65;;;;;;;3.20;59.33;99165.56;4992322;28;20378;-68
2023/01/31 08:12:18;;;;;;;22.92;10.18;;;;;;;3.23;59.95;99170.50;4983490;28;20089;-68
2023/01/31 08:14:45;;;;;;;26.15;11.15;;;;;;;3.30;59.03;99170.13;4987924;28;20410;-68
2023/01/31 08:17:10;;;;;;;28.95;11.15;;;;;;;3.38;59.73;99160.41;4973821;28;20023;-68
2023/01/31 08:19:36;;;;;;;24.40;11.52;;;;;;;3.39;59.55;99170.34;4992286;28;20029;-68
2023/01/31 08:22:03;;;;;;;29.33;9.98;;;;;;;3.41;59.04;99170.88;4989919;28;20397;-68
2023/01/31 08:24:29;;;;;;;25.65;12.40;;;;;;;3.54;60.08;99169.31;4982327;28;20030;-68
2023/01/31 08:26:55;;;;;;;41.63;13.48;;;;;;;3.51;58.98;99164.38;4989565;28;20037;-69
2023/01/31 08:29:21;;;;;;;41.25;15.50;;;;;;;3.57;59.78;99167.91;4987933;28;20022;-68
2023/01/31 08:31:46;;;;;;;35.92;17.33;;;;;;;3.64;60.15;99171.97;4975207;28;20078;-68
2023/01/31 08:34:12;;;;;;;22.25;11.70;;;;;;;3.67;60.04;99166.94;4991778;28;20183;-68
2023/01/31 08:36:37;;;;;;;15.65;8.65;;;;;;;3.79;60.04;99175.63;4991738;28;20100;-68
2023/01/31 08:39:04;;;;;;;32.13;12.27;;;;;;;3.89;59.96;99178.28;4990485;28;20022;-69
2023/01/31 08:41:34;;;;;;;23.13;12.05;;;;;;;3.95;59.19;99184.56;4980818;28;20425;-70
2023/01/31 08:43:59;;;;;;;15.60;8.45;;;;;;;3.98;58.42;99178.44;4992087;28;20504;-68
2023/01/31 08:46:31;;;;;;;14.05;10.13;;;;;;;4.11;58.85;99185.16;4978633;28;20054;-68
2023/01/31 08:48:57;;;;;;;19.95;10.00;;;;;;;4.17;58.95;99180.38;4972851;28;20039;-68
2023/01/31 08:51:22;;;;;;;31.67;13.13;;;;;;;4.28;58.48;99176.34;4973175;28;20394;-68
2023/01/31 08:53:48;;;;;;;18.35;9.18;;;;;;;4.28;58.01;99162.50;4990868;28;20034;-68
2023/01/31 08:56:14;;;;;;;22.42;11.05;;;;;;;4.43;57.60;99174.47;4992278;28;20026;-68
2023/01/31 08:58:42;;;;;;;20.50;9.55;;;;;;;4.57;55.70;99166.22;4981058;28;20030;-65
2023/01/31 09:01:10;;;;;;;21.17;9.20;;;;;;;4.92;55.56;99167.53;4972829;28;20408;-68
2023/01/31 09:03:36;;;;;;;16.00;9.23;;;;;;;5.13;53.74;99167.16;4980355;28;20109;-68
2023/01/31 09:06:04;;;;;;;15.98;9.50;;;;;;;5.08;54.33;99172.81;4985629;28;20512;-69
2023/01/31 09:08:30;;;;;;;18.50;10.35;;;;;;;5.16;55.43;99174.88;4977282;28;20113;-68
2023/01/31 09:10:59;;;;;;;15.15;7.95;;;;;;;4.95;54.28;99171.66;4986367;28;20184;-68
2023/01/31 09:13:25;;;;;;;19.45;10.43;;;;;;;4.98;53.62;99184.91;4990152;28;20076;-68
2023/01/31 09:15:59;;;;;;;16.52;8.88;;;;;;;4.94;53.51;99180.25;4989968;28;20061;-68
2023/01/31 09:18:24;;;;;;;16.15;10.02;;;;;;;4.84;53.23;99181.28;4986070;28;20030;-69
2023/01/31 09:20:50;;;;;;;17.90;9.25;;;;;;;4.89;53.87;99181.19;4991136;28;20096;-68
2023/01/31 09:23:15;;;;;;;14.18;7.38;;;;;;;5.00;51.43;99188.19;4980098;28;20018;-67
2023/01/31 09:25:41;;;;;;;12.10;7.18;;;;;;;5.10;51.79;99170.56;4990284;28;20524;-68
2023/01/31 09:28:06;;;;;;;16.58;7.20;;;;;;;5.24;51.83;99158.66;4981333;28;20053;-68
2023/01/31 09:30:32;;;;;;;17.20;8.73;;;;;;;5.26;51.81;99161.94;4986660;28;20022;-67
2023/01/31 09:33:00;;;;;;;13.77;7.60;;;;;;;5.50;51.13;99156.19;4991759;28;20023;-68
2023/01/31 09:35:26;;;;;;;11.80;6.82;;;;;;;5.68;49.91;99168.31;4982062;28;20113;-68
2023/01/31 09:37:51;;;;;;;11.65;7.10;;;;;;;5.78;50.83;99153.41;4968449;28;20094;-70
2023/01/31 09:40:23;;;;;;;16.73;7.68;;;;;;;6.18;50.85;99142.53;4986766;28;20080;-68
2023/01/31 09:42:50;;;;;;;10.10;6.13;;;;;;;6.50;49.59;99137.03;4984938;28;20015;-68
2023/01/31 09:45:35;;;;;;;13.27;6.95;;;;;;;6.52;49.95;99120.06;4991143;28;20085;-67
2023/01/31 09:48:05;;;;;;;12.25;5.57;;;;;;;6.37;49.08;99124.03;4985246;28;20089;-68
2023/01/31 09:50:44;;;;;;;14.30;7.38;;;;;;;6.50;47.82;99123.16;4983017;28;20053;-67
2023/01/31 09:53:20;;;;;;;14.73;7.85;;;;;;;6.14;48.34;99110.97;4989205;28;20038;-68
2023/01/31 09:56:08;;;;;;;13.10;5.45;;;;;;;5.82;49.58;99106.41;4991220;28;20098;-68
2023/01/31 09:59:05;;;;;;;11.73;7.18;;;;;;;6.33;50.00;99101.63;4986675;28;20599;-66
2023/01/31 10:01:42;;;;;;;8.52;5.00;;;;;;;6.07;49.25;99095.88;4981439;28;20396;-67
2023/01/31 10:04:15;;;;;;;8.75;4.90;;;;;;;6.20;48.52;99081.13;4978006;28;20026;-69
2023/01/31 10:06:41;;;;;;;18.17;5.63;;;;;;;6.46;48.93;99083.25;4987990;28;20030;-66
2023/01/31 10:09:34;;;;;;;8.48;4.82;;;;;;;6.27;47.52;99092.59;4979763;28;20039;-68
2023/01/31 10:12:10;;;;;;;14.10;5.28;;;;;;;6.49;49.37;99074.28;4973473;28;20026;-67
2023/01/31 10:14:39;;;;;;;8.02;4.72;;;;;;;6.73;48.84;99078.66;4990338;28;20092;-69
2023/01/31 10:17:12;;;;;;;23.98;6.15;;;;;;;6.71;48.06;99078.16;4981743;28;20035;-68
2023/01/31 10:19:44;;;;;;;10.57;6.18;;;;;;;6.37;48.80;99096.25;5001874;28;20081;-68
2023/01/31 10:22:18;;;;;;;8.70;5.53;;;;;;;6.23;48.39;99069.38;4983988;28;20428;-68
2023/01/31 10:25:08;;;;;;;12.98;7.95;;;;;;;6.36;50.03;99083.50;4978473;28;20037;-69
2023/01/31 10:27:49;;;;;;;11.48;6.60;;;;;;;6.51;49.43;99074.78;4985308;28;20409;-67
2023/01/31 10:30:33;;;;;;;14.32;6.35;;;;;;;6.31;49.41;99085.28;4975587;28;20046;-67
2023/01/31 10:33:09;;;;;;;16.90;6.78;;;;;;;6.45;49.93;99076.88;4988008;28;20092;-69
2023/01/31 10:35:42;;;;;;;8.23;5.80;;;;;;;6.60;48.63;99067.31;4992489;28;20034;-66
2023/01/31 10:38:25;;;;;;;19.05;7.40;;;;;;;6.83;48.64;99070.06;4990165;28;20029;-68
2023/01/31 10:40:58;;;;;;;8.77;4.82;;;;;;;6.53;47.57;99071.69;4989922;28;20046;-68
2023/01/31 10:43:43;;;;;;;11.43;7.28;;;;;;;6.76;48.43;99083.59;4986439;28;20046;-67
2023/01/31 10:46:12;;;;;;;10.63;7.13;;;;;;;6.55;47.81;99067.47;4991070;28;20124;-67
2023/01/31 10:48:41;;;;;;;7.32;5.57;;;;;;;6.73;48.14;99064.75;4989877;28;20108;-67
2023/01/31 10:51:12;;;;;;;18.27;6.50;;;;;;;7.03;48.00;99057.53;4990250;28;20042;-68
2023/01/31 10:54:02;;;;;;;10.38;6.13;;;;;;;7.33;47.73;99065.31;4991253;28;20030;-68
2023/01/31 10:56:34;;;;;;;16.13;9.85;;;;;;;6.99;46.55;99059.34;4988990;28;20034;-66
2023/01/31 10:59:04;;;;;;;10.90;6.78;;;;;;;6.76;47.97;99066.09;4970984;28;20053;-68
2023/01/31 11:01:29;;;;;;;16.20;7.35;;;;;;;6.44;48.04;99052.19;4976513;28;20382;-68
2023/01/31 11:03:56;;;;;;;11.40;5.78;;;;;;;6.35;49.05;99060.47;4986197;28;20049;-69
2023/01/31 11:06:22;;;;;;;8.60;6.72;;;;;;;6.36;49.54;99058.50;4974357;28;20543;-68
2023/01/31 11:08:55;;;;;;;14.93;5.90;;;;;;;6.23;50.13;99052.72;4984947;28;20421;-67
2023/01/31 11:11:23;;;;;;;13.10;7.13;;;;;;;6.14;50.15;99058.19;4989001;28;20096;-68
2023/01/31 11:14:07;;;;;;;15.93;8.70;;;;;;;6.00;50.12;99060.19;4989286;28;20033;-67
2023/01/31 11:16:38;;;;;;;26.88;15.15;;;;;;;6.02;50.86;99072.63;4987570;28;20022;-67
2023/01/31 11:19:17;;;;;;;15.13;7.38;;;;;;;6.04;51.68;99061.22;4993090;28;20029;-66
2023/01/31 11:21:49;;;;;;;13.55;7.95;;;;;;;5.91;50.82;99071.19;4992456;28;20034;-66
2023/01/31 11:24:18;;;;;;;14.15;6.93;;;;;;;5.92;50.03;99067.31;4988205;28;20038;-65
2023/01/31 11:27:06;;;;;;;24.55;8.23;;;;;;;5.84;49.71;99073.59;4991467;28;20015;-66
2023/01/31 11:29:38;;;;;;;12.93;7.47;;;;;;;6.07;50.47;99057.00;4990868;28;20041;-66
2023/01/31 11:32:20;;;;;;;8.57;6.72;;;;;;;5.97;50.66;99050.53;4992303;28;20034;-67
2023/01/31 11:35:20;;;;;;;10.35;7.00;;;;;;;5.88;50.57;99060.75;4993097;28;20406;-66
2023/01/31 11:37:55;;;;;;;10.40;6.63;;;;;;;5.90;50.13;99055.69;4990437;28;20034;-65
2023/01/31 11:40:35;;;;;;;10.10;6.68;;;;;;;5.80;50.64;99055.94;4992567;28;20031;-66
2023/01/31 11:43:04;;;;;;;7.85;5.82;;;;;;;5.78;50.63;99059.03;4991768;28;20524;-65
2023/01/31 11:45:37;;;;;;;8.55;5.93;;;;;;;5.76;50.76;99056.56;4989801;28;20038;-68
2023/01/31 11:48:21;;;;;;;12.80;7.43;;;;;;;5.76;51.00;99061.31;4982743;28;20030;-65